sensor_id;sensor_type;location;lat;lon;timestamp;P1;durP1;ratioP1;P2;durP2;ratioP2
2658;SDS011;1339;53.304;10.406;2023-04-26T00:01:17;6.70;;;2.50;;
2658;SDS011;1339;53.304;10.406;2023-04-26T00:03:44;4.88;;;2.40;;
2658;SDS011;1339;53.304;10.406;2023-04-26T00:06:11;6.65;;;2.15;;
2658;SDS011;1339;53.304;10.406;2023-04-26T00:08:38;6.40;;;2.88;;
2658;SDS011;1339;53.304;10.406;2023-04-26T00:11:06;3.10;;;2.42;;
2658;SDS011;1339;53.304;10.406;2023-04-26T00:13:34;4.28;;;2.15;;
2658;SDS011;1339;53.304;10.406;2023-04-26T00:16:02;2.92;;;2.05;;
2658;SDS011;1339;53.304;10.406;2023-04-26T00:18:32;5.93;;;2.63;;
2658;SDS011;1339;53.304;10.406;2023-04-26T00:20:59;5.78;;;2.40;;
2658;SDS011;1339;53.304;10.406;2023-04-26T00:23:26;5.53;;;2.13;;
2658;SDS011;1339;53.304;10.406;2023-04-26T00:25:53;3.92;;;2.20;;
2658;SDS011;1339;53.304;10.406;2023-04-26T00:28:20;6.38;;;2.10;;
2658;SDS011;1339;53.304;10.406;2023-04-26T00:30:48;1.90;;;1.80;;
2658;SDS011;1339;53.304;10.406;2023-04-26T00:33:15;9.70;;;2.50;;
2658;SDS011;1339;53.304;10.406;2023-04-26T00:35:42;6.63;;;2.80;;
2658;SDS011;1339;53.304;10.406;2023-04-26T00:38:09;3.67;;;2.40;;
2658;SDS011;1339;53.304;10.406;2023-04-26T00:40:36;4.35;;;2.53;;
2658;SDS011;1339;53.304;10.406;2023-04-26T00:43:04;5.05;;;2.55;;
2658;SDS011;1339;53.304;10.406;2023-04-26T00:45:31;12.63;;;2.47;;
2658;SDS011;1339;53.304;10.406;2023-04-26T00:48:00;3.03;;;2.00;;
2658;SDS011;1339;53.304;10.406;2023-04-26T00:50:27;3.15;;;2.00;;
2658;SDS011;1339;53.304;10.406;2023-04-26T00:52:54;3.40;;;2.45;;
2658;SDS011;1339;53.304;10.406;2023-04-26T00:55:22;4.57;;;2.75;;
2658;SDS011;1339;53.304;10.406;2023-04-26T00:57:51;10.43;;;3.47;;
2658;SDS011;1339;53.304;10.406;2023-04-26T01:00:18;3.97;;;2.45;;
2658;SDS011;1339;53.304;10.406;2023-04-26T01:02:45;5.50;;;2.50;;
2658;SDS011;1339;53.304;10.406;2023-04-26T01:05:13;10.60;;;3.10;;
2658;SDS011;1339;53.304;10.406;2023-04-26T01:07:40;6.78;;;2.17;;
2658;SDS011;1339;53.304;10.406;2023-04-26T01:10:07;9.38;;;2.78;;
2658;SDS011;1339;53.304;10.406;2023-04-26T01:12:35;11.27;;;2.67;;
2658;SDS011;1339;53.304;10.406;2023-04-26T01:15:02;5.82;;;2.70;;
2658;SDS011;1339;53.304;10.406;2023-04-26T01:17:30;5.35;;;2.85;;
2658;SDS011;1339;53.304;10.406;2023-04-26T01:19:57;6.53;;;2.83;;
2658;SDS011;1339;53.304;10.406;2023-04-26T01:22:26;4.28;;;2.60;;
2658;SDS011;1339;53.304;10.406;2023-04-26T01:24:54;5.13;;;2.58;;
2658;SDS011;1339;53.304;10.406;2023-04-26T01:27:22;4.75;;;2.83;;
2658;SDS011;1339;53.304;10.406;2023-04-26T01:29:48;8.23;;;3.13;;
2658;SDS011;1339;53.304;10.406;2023-04-26T01:32:15;6.57;;;2.65;;
2658;SDS011;1339;53.304;10.406;2023-04-26T01:34:42;7.40;;;3.10;;
2658;SDS011;1339;53.304;10.406;2023-04-26T01:37:10;8.38;;;3.25;;
2658;SDS011;1339;53.304;10.406;2023-04-26T01:39:37;5.80;;;2.72;;
2658;SDS011;1339;53.304;10.406;2023-04-26T01:42:05;4.45;;;2.70;;
2658;SDS011;1339;53.304;10.406;2023-04-26T01:44:32;2.90;;;2.70;;
2658;SDS011;1339;53.304;10.406;2023-04-26T01:46:59;7.22;;;2.65;;
2658;SDS011;1339;53.304;10.406;2023-04-26T01:49:26;3.55;;;2.33;;
2658;SDS011;1339;53.304;10.406;2023-04-26T01:51:53;6.80;;;2.50;;
2658;SDS011;1339;53.304;10.406;2023-04-26T01:54:20;5.15;;;2.22;;
2658;SDS011;1339;53.304;10.406;2023-04-26T01:56:47;4.03;;;2.20;;
2658;SDS011;1339;53.304;10.406;2023-04-26T01:59:15;9.15;;;2.55;;
2658;SDS011;1339;53.304;10.406;2023-04-26T02:01:42;5.68;;;3.50;;
2658;SDS011;1339;53.304;10.406;2023-04-26T02:04:10;5.30;;;3.15;;
2658;SDS011;1339;53.304;10.406;2023-04-26T02:06:37;4.65;;;2.45;;
2658;SDS011;1339;53.304;10.406;2023-04-26T02:09:05;9.02;;;3.40;;
2658;SDS011;1339;53.304;10.406;2023-04-26T02:11:33;6.57;;;3.20;;
2658;SDS011;1339;53.304;10.406;2023-04-26T02:14:00;3.42;;;2.75;;
2658;SDS011;1339;53.304;10.406;2023-04-26T02:16:28;8.52;;;2.75;;
2658;SDS011;1339;53.304;10.406;2023-04-26T02:18:56;7.90;;;3.00;;
2658;SDS011;1339;53.304;10.406;2023-04-26T02:21:24;6.07;;;2.78;;
2658;SDS011;1339;53.304;10.406;2023-04-26T02:23:52;9.65;;;2.78;;
2658;SDS011;1339;53.304;10.406;2023-04-26T02:26:19;7.93;;;2.83;;
2658;SDS011;1339;53.304;10.406;2023-04-26T02:28:46;12.45;;;3.15;;
2658;SDS011;1339;53.304;10.406;2023-04-26T02:31:12;6.60;;;3.72;;
2658;SDS011;1339;53.304;10.406;2023-04-26T02:33:41;7.53;;;3.38;;
2658;SDS011;1339;53.304;10.406;2023-04-26T02:36:08;3.92;;;3.50;;
2658;SDS011;1339;53.304;10.406;2023-04-26T02:38:35;10.73;;;4.65;;
2658;SDS011;1339;53.304;10.406;2023-04-26T02:41:02;4.47;;;3.00;;
2658;SDS011;1339;53.304;10.406;2023-04-26T02:43:29;5.90;;;3.33;;
2658;SDS011;1339;53.304;10.406;2023-04-26T02:45:56;8.23;;;3.13;;
2658;SDS011;1339;53.304;10.406;2023-04-26T02:48:25;12.68;;;4.50;;
2658;SDS011;1339;53.304;10.406;2023-04-26T02:50:53;8.98;;;3.50;;
2658;SDS011;1339;53.304;10.406;2023-04-26T02:53:21;6.25;;;2.90;;
2658;SDS011;1339;53.304;10.406;2023-04-26T02:55:48;7.05;;;3.75;;
2658;SDS011;1339;53.304;10.406;2023-04-26T02:58:15;7.78;;;3.25;;
2658;SDS011;1339;53.304;10.406;2023-04-26T03:00:44;5.38;;;3.08;;
2658;SDS011;1339;53.304;10.406;2023-04-26T03:03:12;7.15;;;4.20;;
2658;SDS011;1339;53.304;10.406;2023-04-26T03:05:38;11.55;;;4.20;;
2658;SDS011;1339;53.304;10.406;2023-04-26T03:08:07;3.67;;;3.08;;
2658;SDS011;1339;53.304;10.406;2023-04-26T03:10:34;8.15;;;3.22;;
2658;SDS011;1339;53.304;10.406;2023-04-26T03:13:01;8.60;;;3.50;;
2658;SDS011;1339;53.304;10.406;2023-04-26T03:15:28;8.80;;;3.22;;
2658;SDS011;1339;53.304;10.406;2023-04-26T03:17:55;7.25;;;2.60;;
2658;SDS011;1339;53.304;10.406;2023-04-26T03:20:22;5.82;;;2.55;;
2658;SDS011;1339;53.304;10.406;2023-04-26T03:22:49;4.90;;;2.72;;
2658;SDS011;1339;53.304;10.406;2023-04-26T03:25:17;6.45;;;2.90;;
2658;SDS011;1339;53.304;10.406;2023-04-26T03:27:45;3.95;;;3.20;;
2658;SDS011;1339;53.304;10.406;2023-04-26T03:30:12;11.40;;;4.15;;
2658;SDS011;1339;53.304;10.406;2023-04-26T03:32:39;12.13;;;4.22;;
2658;SDS011;1339;53.304;10.406;2023-04-26T03:35:07;5.78;;;3.08;;
2658;SDS011;1339;53.304;10.406;2023-04-26T03:37:34;4.55;;;3.40;;
2658;SDS011;1339;53.304;10.406;2023-04-26T03:40:04;12.60;;;3.58;;
2658;SDS011;1339;53.304;10.406;2023-04-26T03:42:33;6.15;;;3.47;;
2658;SDS011;1339;53.304;10.406;2023-04-26T03:45:00;9.85;;;4.65;;
2658;SDS011;1339;53.304;10.406;2023-04-26T03:47:27;6.93;;;4.30;;
2658;SDS011;1339;53.304;10.406;2023-04-26T03:49:54;15.48;;;4.18;;
2658;SDS011;1339;53.304;10.406;2023-04-26T03:52:21;5.07;;;3.75;;
2658;SDS011;1339;53.304;10.406;2023-04-26T03:54:48;5.32;;;3.35;;
2658;SDS011;1339;53.304;10.406;2023-04-26T03:57:15;10.40;;;2.85;;
2658;SDS011;1339;53.304;10.406;2023-04-26T03:59:43;4.85;;;3.05;;
2658;SDS011;1339;53.304;10.406;2023-04-26T04:02:10;4.90;;;3.30;;
2658;SDS011;1339;53.304;10.406;2023-04-26T04:04:37;10.20;;;3.97;;
2658;SDS011;1339;53.304;10.406;2023-04-26T04:07:04;4.07;;;3.63;;
2658;SDS011;1339;53.304;10.406;2023-04-26T04:09:31;4.80;;;3.28;;
2658;SDS011;1339;53.304;10.406;2023-04-26T04:11:58;9.73;;;3.20;;
2658;SDS011;1339;53.304;10.406;2023-04-26T04:14:25;4.40;;;3.20;;
2658;SDS011;1339;53.304;10.406;2023-04-26T04:16:53;3.40;;;2.47;;
2658;SDS011;1339;53.304;10.406;2023-04-26T04:19:20;6.10;;;3.35;;
2658;SDS011;1339;53.304;10.406;2023-04-26T04:21:47;10.38;;;3.38;;
2658;SDS011;1339;53.304;10.406;2023-04-26T04:24:14;21.88;;;3.47;;
2658;SDS011;1339;53.304;10.406;2023-04-26T04:26:41;7.03;;;3.33;;
2658;SDS011;1339;53.304;10.406;2023-04-26T04:29:08;6.10;;;3.95;;
2658;SDS011;1339;53.304;10.406;2023-04-26T04:31:35;12.32;;;4.13;;
2658;SDS011;1339;53.304;10.406;2023-04-26T04:34:05;4.75;;;4.25;;
2658;SDS011;1339;53.304;10.406;2023-04-26T04:36:32;5.07;;;4.50;;
2658;SDS011;1339;53.304;10.406;2023-04-26T04:38:59;7.00;;;3.33;;
2658;SDS011;1339;53.304;10.406;2023-04-26T04:41:27;7.00;;;3.42;;
2658;SDS011;1339;53.304;10.406;2023-04-26T04:43:54;5.90;;;3.60;;
2658;SDS011;1339;53.304;10.406;2023-04-26T04:46:21;7.32;;;3.35;;
2658;SDS011;1339;53.304;10.406;2023-04-26T04:48:49;7.53;;;3.58;;
2658;SDS011;1339;53.304;10.406;2023-04-26T04:51:18;5.13;;;3.30;;
2658;SDS011;1339;53.304;10.406;2023-04-26T04:53:45;7.45;;;3.78;;
2658;SDS011;1339;53.304;10.406;2023-04-26T04:56:12;4.13;;;3.08;;
2658;SDS011;1339;53.304;10.406;2023-04-26T04:58:39;3.67;;;2.90;;
2658;SDS011;1339;53.304;10.406;2023-04-26T05:01:06;6.97;;;4.15;;
2658;SDS011;1339;53.304;10.406;2023-04-26T05:03:33;7.22;;;3.35;;
2658;SDS011;1339;53.304;10.406;2023-04-26T05:06:00;8.23;;;3.88;;
2658;SDS011;1339;53.304;10.406;2023-04-26T05:08:28;9.30;;;4.03;;
2658;SDS011;1339;53.304;10.406;2023-04-26T05:10:56;6.55;;;3.67;;
2658;SDS011;1339;53.304;10.406;2023-04-26T05:13:23;5.43;;;3.97;;
2658;SDS011;1339;53.304;10.406;2023-04-26T05:15:50;7.88;;;3.97;;
2658;SDS011;1339;53.304;10.406;2023-04-26T05:18:17;7.18;;;3.88;;
2658;SDS011;1339;53.304;10.406;2023-04-26T05:20:44;6.95;;;5.10;;
2658;SDS011;1339;53.304;10.406;2023-04-26T05:23:10;5.13;;;4.22;;
2658;SDS011;1339;53.304;10.406;2023-04-26T05:25:39;4.88;;;3.80;;
2658;SDS011;1339;53.304;10.406;2023-04-26T05:28:06;6.95;;;3.70;;
2658;SDS011;1339;53.304;10.406;2023-04-26T05:30:36;6.53;;;4.43;;
2658;SDS011;1339;53.304;10.406;2023-04-26T05:33:03;9.93;;;3.10;;
2658;SDS011;1339;53.304;10.406;2023-04-26T05:35:30;4.38;;;3.20;;
2658;SDS011;1339;53.304;10.406;2023-04-26T05:37:57;6.63;;;3.58;;
2658;SDS011;1339;53.304;10.406;2023-04-26T05:40:24;12.82;;;4.93;;
2658;SDS011;1339;53.304;10.406;2023-04-26T05:42:52;9.50;;;4.43;;
2658;SDS011;1339;53.304;10.406;2023-04-26T05:45:19;9.57;;;4.50;;
2658;SDS011;1339;53.304;10.406;2023-04-26T05:47:46;7.97;;;4.15;;
2658;SDS011;1339;53.304;10.406;2023-04-26T05:50:13;7.43;;;3.90;;
2658;SDS011;1339;53.304;10.406;2023-04-26T05:52:40;4.80;;;4.03;;
2658;SDS011;1339;53.304;10.406;2023-04-26T05:55:08;8.55;;;4.35;;
2658;SDS011;1339;53.304;10.406;2023-04-26T05:57:35;13.07;;;4.70;;
2658;SDS011;1339;53.304;10.406;2023-04-26T06:00:04;7.13;;;4.32;;
2658;SDS011;1339;53.304;10.406;2023-04-26T06:02:33;10.80;;;3.25;;
2658;SDS011;1339;53.304;10.406;2023-04-26T06:05:00;8.50;;;4.25;;
2658;SDS011;1339;53.304;10.406;2023-04-26T06:07:27;9.18;;;4.40;;
2658;SDS011;1339;53.304;10.406;2023-04-26T06:09:55;4.85;;;3.88;;
2658;SDS011;1339;53.304;10.406;2023-04-26T06:12:22;8.73;;;4.15;;
2658;SDS011;1339;53.304;10.406;2023-04-26T06:14:49;4.25;;;3.30;;
2658;SDS011;1339;53.304;10.406;2023-04-26T06:17:17;6.45;;;4.82;;
2658;SDS011;1339;53.304;10.406;2023-04-26T06:19:45;5.07;;;3.97;;
2658;SDS011;1339;53.304;10.406;2023-04-26T06:22:12;8.38;;;4.10;;
2658;SDS011;1339;53.304;10.406;2023-04-26T06:24:39;4.55;;;3.53;;
2658;SDS011;1339;53.304;10.406;2023-04-26T06:27:05;3.92;;;3.45;;
2658;SDS011;1339;53.304;10.406;2023-04-26T06:29:32;4.18;;;3.55;;
2658;SDS011;1339;53.304;10.406;2023-04-26T06:32:00;6.20;;;4.13;;
2658;SDS011;1339;53.304;10.406;2023-04-26T06:34:28;6.13;;;3.05;;
2658;SDS011;1339;53.304;10.406;2023-04-26T06:36:55;4.30;;;3.72;;
2658;SDS011;1339;53.304;10.406;2023-04-26T06:39:22;8.98;;;4.85;;
2658;SDS011;1339;53.304;10.406;2023-04-26T06:41:50;10.57;;;4.05;;
2658;SDS011;1339;53.304;10.406;2023-04-26T06:44:17;4.38;;;3.30;;
2658;SDS011;1339;53.304;10.406;2023-04-26T06:46:44;10.50;;;4.28;;
2658;SDS011;1339;53.304;10.406;2023-04-26T06:49:11;6.50;;;3.50;;
2658;SDS011;1339;53.304;10.406;2023-04-26T06:51:39;4.57;;;3.53;;
2658;SDS011;1339;53.304;10.406;2023-04-26T06:54:07;4.15;;;3.22;;
2658;SDS011;1339;53.304;10.406;2023-04-26T06:56:34;9.10;;;4.32;;
2658;SDS011;1339;53.304;10.406;2023-04-26T06:59:02;11.40;;;4.38;;
2658;SDS011;1339;53.304;10.406;2023-04-26T07:01:29;7.00;;;4.00;;
2658;SDS011;1339;53.304;10.406;2023-04-26T07:03:57;6.13;;;3.70;;
2658;SDS011;1339;53.304;10.406;2023-04-26T07:06:25;4.22;;;3.80;;
2658;SDS011;1339;53.304;10.406;2023-04-26T07:08:53;7.60;;;4.80;;
2658;SDS011;1339;53.304;10.406;2023-04-26T07:11:20;9.05;;;4.45;;
2658;SDS011;1339;53.304;10.406;2023-04-26T07:13:47;7.22;;;4.38;;
2658;SDS011;1339;53.304;10.406;2023-04-26T07:16:14;6.50;;;3.78;;
2658;SDS011;1339;53.304;10.406;2023-04-26T07:18:41;6.07;;;3.22;;
2658;SDS011;1339;53.304;10.406;2023-04-26T07:21:08;6.68;;;3.80;;
2658;SDS011;1339;53.304;10.406;2023-04-26T07:23:35;5.65;;;4.40;;
2658;SDS011;1339;53.304;10.406;2023-04-26T07:26:04;6.88;;;4.38;;
2658;SDS011;1339;53.304;10.406;2023-04-26T07:28:31;13.93;;;4.68;;
2658;SDS011;1339;53.304;10.406;2023-04-26T07:30:58;7.22;;;3.78;;
2658;SDS011;1339;53.304;10.406;2023-04-26T07:33:26;8.60;;;4.50;;
2658;SDS011;1339;53.304;10.406;2023-04-26T07:35:53;5.95;;;4.30;;
2658;SDS011;1339;53.304;10.406;2023-04-26T07:38:21;5.95;;;4.20;;
2658;SDS011;1339;53.304;10.406;2023-04-26T07:40:48;6.07;;;3.58;;
2658;SDS011;1339;53.304;10.406;2023-04-26T07:43:17;9.38;;;4.32;;
2658;SDS011;1339;53.304;10.406;2023-04-26T07:45:44;7.13;;;4.18;;
2658;SDS011;1339;53.304;10.406;2023-04-26T07:48:11;8.65;;;4.47;;
2658;SDS011;1339;53.304;10.406;2023-04-26T07:50:38;17.23;;;4.85;;
2658;SDS011;1339;53.304;10.406;2023-04-26T07:53:05;10.77;;;4.60;;
2658;SDS011;1339;53.304;10.406;2023-04-26T07:55:32;7.78;;;4.38;;
2658;SDS011;1339;53.304;10.406;2023-04-26T07:58:01;6.28;;;4.45;;
2658;SDS011;1339;53.304;10.406;2023-04-26T08:00:29;4.13;;;2.97;;
2658;SDS011;1339;53.304;10.406;2023-04-26T08:02:56;5.97;;;3.22;;
2658;SDS011;1339;53.304;10.406;2023-04-26T08:05:23;5.22;;;3.58;;
2658;SDS011;1339;53.304;10.406;2023-04-26T08:07:51;4.95;;;4.53;;
2658;SDS011;1339;53.304;10.406;2023-04-26T08:10:18;8.32;;;5.47;;
2658;SDS011;1339;53.304;10.406;2023-04-26T08:12:45;6.65;;;3.05;;
2658;SDS011;1339;53.304;10.406;2023-04-26T08:15:12;3.78;;;2.78;;
2658;SDS011;1339;53.304;10.406;2023-04-26T08:17:40;4.25;;;2.60;;
2658;SDS011;1339;53.304;10.406;2023-04-26T08:20:07;5.13;;;3.25;;
2658;SDS011;1339;53.304;10.406;2023-04-26T08:22:34;3.03;;;2.72;;
2658;SDS011;1339;53.304;10.406;2023-04-26T08:25:01;5.22;;;3.03;;
2658;SDS011;1339;53.304;10.406;2023-04-26T08:27:29;6.82;;;2.80;;
2658;SDS011;1339;53.304;10.406;2023-04-26T08:29:58;4.13;;;2.10;;
2658;SDS011;1339;53.304;10.406;2023-04-26T08:32:25;5.10;;;2.60;;
2658;SDS011;1339;53.304;10.406;2023-04-26T08:34:53;2.20;;;2.00;;
2658;SDS011;1339;53.304;10.406;2023-04-26T08:37:20;3.20;;;2.90;;
2658;SDS011;1339;53.304;10.406;2023-04-26T08:39:47;6.40;;;3.25;;
2658;SDS011;1339;53.304;10.406;2023-04-26T08:42:15;5.15;;;2.50;;
2658;SDS011;1339;53.304;10.406;2023-04-26T08:44:42;5.82;;;2.60;;
2658;SDS011;1339;53.304;10.406;2023-04-26T08:47:12;4.88;;;3.00;;
2658;SDS011;1339;53.304;10.406;2023-04-26T08:49:40;8.63;;;3.03;;
2658;SDS011;1339;53.304;10.406;2023-04-26T08:52:09;4.10;;;3.20;;
2658;SDS011;1339;53.304;10.406;2023-04-26T08:54:36;5.10;;;3.50;;
2658;SDS011;1339;53.304;10.406;2023-04-26T08:57:03;6.80;;;2.80;;
2658;SDS011;1339;53.304;10.406;2023-04-26T08:59:32;8.20;;;3.42;;
2658;SDS011;1339;53.304;10.406;2023-04-26T09:01:59;5.72;;;2.90;;
2658;SDS011;1339;53.304;10.406;2023-04-26T09:04:27;7.20;;;3.30;;
2658;SDS011;1339;53.304;10.406;2023-04-26T09:06:55;3.85;;;2.78;;
2658;SDS011;1339;53.304;10.406;2023-04-26T09:09:27;3.22;;;2.78;;
2658;SDS011;1339;53.304;10.406;2023-04-26T09:11:54;6.43;;;3.15;;
2658;SDS011;1339;53.304;10.406;2023-04-26T09:14:21;4.47;;;3.40;;
2658;SDS011;1339;53.304;10.406;2023-04-26T09:16:48;12.70;;;3.70;;
2658;SDS011;1339;53.304;10.406;2023-04-26T09:19:16;3.40;;;3.00;;
2658;SDS011;1339;53.304;10.406;2023-04-26T09:21:43;3.85;;;2.50;;
2658;SDS011;1339;53.304;10.406;2023-04-26T09:24:10;3.38;;;2.80;;
2658;SDS011;1339;53.304;10.406;2023-04-26T09:26:39;5.22;;;3.85;;
2658;SDS011;1339;53.304;10.406;2023-04-26T09:29:12;5.72;;;2.72;;
2658;SDS011;1339;53.304;10.406;2023-04-26T09:31:41;4.97;;;2.55;;
2658;SDS011;1339;53.304;10.406;2023-04-26T09:34:08;6.85;;;3.05;;
2658;SDS011;1339;53.304;10.406;2023-04-26T09:36:45;5.63;;;3.40;;
2658;SDS011;1339;53.304;10.406;2023-04-26T09:39:12;6.32;;;3.53;;
2658;SDS011;1339;53.304;10.406;2023-04-26T09:41:43;6.05;;;3.33;;
2658;SDS011;1339;53.304;10.406;2023-04-26T09:44:20;10.68;;;4.10;;
2658;SDS011;1339;53.304;10.406;2023-04-26T09:46:57;3.83;;;3.50;;
2658;SDS011;1339;53.304;10.406;2023-04-26T09:49:25;9.00;;;4.45;;
2658;SDS011;1339;53.304;10.406;2023-04-26T09:51:58;3.28;;;2.97;;
2658;SDS011;1339;53.304;10.406;2023-04-26T09:54:36;5.32;;;3.88;;
2658;SDS011;1339;53.304;10.406;2023-04-26T09:57:04;4.03;;;3.20;;
2658;SDS011;1339;53.304;10.406;2023-04-26T09:59:38;3.30;;;2.63;;
2658;SDS011;1339;53.304;10.406;2023-04-26T10:02:05;3.65;;;2.25;;
2658;SDS011;1339;53.304;10.406;2023-04-26T10:04:35;5.00;;;1.88;;
2658;SDS011;1339;53.304;10.406;2023-04-26T10:07:03;3.60;;;2.22;;
2658;SDS011;1339;53.304;10.406;2023-04-26T10:09:31;2.88;;;2.08;;
2658;SDS011;1339;53.304;10.406;2023-04-26T10:11:58;2.83;;;1.77;;
2658;SDS011;1339;53.304;10.406;2023-04-26T10:14:27;2.40;;;1.98;;
2658;SDS011;1339;53.304;10.406;2023-04-26T10:16:54;1.60;;;1.50;;
2658;SDS011;1339;53.304;10.406;2023-04-26T10:19:21;4.30;;;2.20;;
2658;SDS011;1339;53.304;10.406;2023-04-26T10:21:48;4.90;;;2.40;;
2658;SDS011;1339;53.304;10.406;2023-04-26T10:24:16;3.60;;;2.35;;
2658;SDS011;1339;53.304;10.406;2023-04-26T10:26:47;4.32;;;2.22;;
2658;SDS011;1339;53.304;10.406;2023-04-26T10:29:14;9.63;;;2.35;;
2658;SDS011;1339;53.304;10.406;2023-04-26T10:32:05;2.05;;;1.85;;
2658;SDS011;1339;53.304;10.406;2023-04-26T10:34:36;5.82;;;2.63;;
2658;SDS011;1339;53.304;10.406;2023-04-26T10:37:06;4.32;;;1.35;;
2658;SDS011;1339;53.304;10.406;2023-04-26T10:39:33;7.65;;;2.10;;
2658;SDS011;1339;53.304;10.406;2023-04-26T10:42:20;3.47;;;1.88;;
2658;SDS011;1339;53.304;10.406;2023-04-26T10:44:51;3.20;;;1.98;;
2658;SDS011;1339;53.304;10.406;2023-04-26T10:47:29;6.68;;;2.90;;
2658;SDS011;1339;53.304;10.406;2023-04-26T10:50:03;5.43;;;2.13;;
2658;SDS011;1339;53.304;10.406;2023-04-26T10:52:31;4.25;;;2.50;;
2658;SDS011;1339;53.304;10.406;2023-04-26T10:54:58;5.50;;;2.20;;
2658;SDS011;1339;53.304;10.406;2023-04-26T11:00:15;3.40;;;1.90;;
2658;SDS011;1339;53.304;10.406;2023-04-26T11:02:50;3.47;;;2.08;;
2658;SDS011;1339;53.304;10.406;2023-04-26T11:08:04;2.20;;;1.25;;
2658;SDS011;1339;53.304;10.406;2023-04-26T11:10:33;3.35;;;1.52;;
2658;SDS011;1339;53.304;10.406;2023-04-26T11:13:00;1.15;;;1.00;;
2658;SDS011;1339;53.304;10.406;2023-04-26T11:15:28;2.13;;;1.08;;
2658;SDS011;1339;53.304;10.406;2023-04-26T11:17:56;2.17;;;1.25;;
2658;SDS011;1339;53.304;10.406;2023-04-26T11:20:27;2.80;;;1.80;;
2658;SDS011;1339;53.304;10.406;2023-04-26T11:22:54;4.43;;;1.48;;
2658;SDS011;1339;53.304;10.406;2023-04-26T11:25:21;1.45;;;1.20;;
2658;SDS011;1339;53.304;10.406;2023-04-26T11:27:50;3.75;;;1.55;;
2658;SDS011;1339;53.304;10.406;2023-04-26T11:30:17;2.17;;;1.38;;
2658;SDS011;1339;53.304;10.406;2023-04-26T11:32:48;3.65;;;2.00;;
2658;SDS011;1339;53.304;10.406;2023-04-26T11:35:16;2.75;;;1.55;;
2658;SDS011;1339;53.304;10.406;2023-04-26T11:37:44;4.15;;;1.83;;
2658;SDS011;1339;53.304;10.406;2023-04-26T11:40:14;3.92;;;1.60;;
2658;SDS011;1339;53.304;10.406;2023-04-26T11:42:42;3.17;;;1.50;;
2658;SDS011;1339;53.304;10.406;2023-04-26T11:45:09;2.10;;;1.70;;
2658;SDS011;1339;53.304;10.406;2023-04-26T11:47:36;2.10;;;1.63;;
2658;SDS011;1339;53.304;10.406;2023-04-26T11:50:03;3.55;;;1.80;;
2658;SDS011;1339;53.304;10.406;2023-04-26T11:52:32;1.45;;;1.35;;
2658;SDS011;1339;53.304;10.406;2023-04-26T11:55:03;2.63;;;1.90;;
2658;SDS011;1339;53.304;10.406;2023-04-26T11:57:30;2.92;;;2.00;;
2658;SDS011;1339;53.304;10.406;2023-04-26T12:00:07;4.97;;;2.28;;
2658;SDS011;1339;53.304;10.406;2023-04-26T12:02:36;3.80;;;2.30;;
2658;SDS011;1339;53.304;10.406;2023-04-26T12:05:03;2.53;;;2.30;;
2658;SDS011;1339;53.304;10.406;2023-04-26T12:07:35;2.72;;;2.00;;
2658;SDS011;1339;53.304;10.406;2023-04-26T12:10:14;3.17;;;2.10;;
2658;SDS011;1339;53.304;10.406;2023-04-26T12:12:48;5.53;;;2.72;;
2658;SDS011;1339;53.304;10.406;2023-04-26T12:15:15;4.03;;;1.75;;
2658;SDS011;1339;53.304;10.406;2023-04-26T12:17:55;4.15;;;3.10;;
2658;SDS011;1339;53.304;10.406;2023-04-26T12:20:25;3.40;;;1.60;;
2658;SDS011;1339;53.304;10.406;2023-04-26T12:22:58;2.70;;;1.38;;
2658;SDS011;1339;53.304;10.406;2023-04-26T12:25:25;5.60;;;1.88;;
2658;SDS011;1339;53.304;10.406;2023-04-26T12:27:51;3.80;;;1.75;;
2658;SDS011;1339;53.304;10.406;2023-04-26T12:30:18;1.85;;;1.35;;
2658;SDS011;1339;53.304;10.406;2023-04-26T12:32:49;2.63;;;2.13;;
2658;SDS011;1339;53.304;10.406;2023-04-26T12:35:15;6.78;;;2.78;;
2658;SDS011;1339;53.304;10.406;2023-04-26T12:37:42;3.90;;;1.40;;
2658;SDS011;1339;53.304;10.406;2023-04-26T12:40:11;3.92;;;2.60;;
2658;SDS011;1339;53.304;10.406;2023-04-26T12:42:40;2.35;;;1.80;;
2658;SDS011;1339;53.304;10.406;2023-04-26T12:45:07;3.00;;;1.60;;
2658;SDS011;1339;53.304;10.406;2023-04-26T12:47:34;4.43;;;2.00;;
2658;SDS011;1339;53.304;10.406;2023-04-26T12:50:01;4.53;;;2.00;;
2658;SDS011;1339;53.304;10.406;2023-04-26T12:52:29;6.00;;;2.22;;
2658;SDS011;1339;53.304;10.406;2023-04-26T12:54:56;2.88;;;2.08;;
2658;SDS011;1339;53.304;10.406;2023-04-26T12:57:24;3.45;;;2.00;;
2658;SDS011;1339;53.304;10.406;2023-04-26T12:59:51;8.48;;;2.60;;
2658;SDS011;1339;53.304;10.406;2023-04-26T13:02:18;3.10;;;1.80;;
2658;SDS011;1339;53.304;10.406;2023-04-26T13:04:49;4.55;;;2.28;;
2658;SDS011;1339;53.304;10.406;2023-04-26T13:07:16;2.95;;;1.63;;
2658;SDS011;1339;53.304;10.406;2023-04-26T13:09:43;4.47;;;2.00;;
2658;SDS011;1339;53.304;10.406;2023-04-26T13:12:10;2.85;;;1.42;;
2658;SDS011;1339;53.304;10.406;2023-04-26T13:14:39;3.80;;;1.33;;
2658;SDS011;1339;53.304;10.406;2023-04-26T13:17:06;3.35;;;1.75;;
2658;SDS011;1339;53.304;10.406;2023-04-26T13:19:33;6.40;;;2.72;;
2658;SDS011;1339;53.304;10.406;2023-04-26T13:22:01;5.13;;;1.58;;
2658;SDS011;1339;53.304;10.406;2023-04-26T13:24:28;3.88;;;1.48;;
2658;SDS011;1339;53.304;10.406;2023-04-26T13:26:55;2.85;;;1.70;;
2658;SDS011;1339;53.304;10.406;2023-04-26T13:29:22;6.07;;;1.50;;
2658;SDS011;1339;53.304;10.406;2023-04-26T13:31:50;1.90;;;1.60;;
2658;SDS011;1339;53.304;10.406;2023-04-26T13:34:17;8.13;;;2.40;;
2658;SDS011;1339;53.304;10.406;2023-04-26T13:36:44;4.05;;;2.42;;
2658;SDS011;1339;53.304;10.406;2023-04-26T13:39:11;2.10;;;1.50;;
2658;SDS011;1339;53.304;10.406;2023-04-26T13:41:38;3.92;;;2.05;;
2658;SDS011;1339;53.304;10.406;2023-04-26T13:44:05;3.15;;;1.73;;
2658;SDS011;1339;53.304;10.406;2023-04-26T13:46:32;2.08;;;1.50;;
2658;SDS011;1339;53.304;10.406;2023-04-26T13:49:00;4.70;;;1.85;;
2658;SDS011;1339;53.304;10.406;2023-04-26T13:51:27;3.60;;;2.08;;
2658;SDS011;1339;53.304;10.406;2023-04-26T13:53:56;5.10;;;2.30;;
2658;SDS011;1339;53.304;10.406;2023-04-26T13:56:23;3.05;;;2.75;;
2658;SDS011;1339;53.304;10.406;2023-04-26T13:58:53;3.47;;;2.70;;
2658;SDS011;1339;53.304;10.406;2023-04-26T14:01:20;3.42;;;2.78;;
2658;SDS011;1339;53.304;10.406;2023-04-26T14:03:47;2.97;;;2.13;;
2658;SDS011;1339;53.304;10.406;2023-04-26T14:06:15;3.10;;;2.50;;
2658;SDS011;1339;53.304;10.406;2023-04-26T14:08:42;6.10;;;2.58;;
2658;SDS011;1339;53.304;10.406;2023-04-26T14:11:10;2.50;;;2.30;;
2658;SDS011;1339;53.304;10.406;2023-04-26T14:13:38;9.57;;;2.47;;
2658;SDS011;1339;53.304;10.406;2023-04-26T14:16:05;2.92;;;1.90;;
2658;SDS011;1339;53.304;10.406;2023-04-26T14:18:32;3.70;;;3.38;;
2658;SDS011;1339;53.304;10.406;2023-04-26T14:20:59;4.53;;;3.58;;
2658;SDS011;1339;53.304;10.406;2023-04-26T14:23:27;2.85;;;1.92;;
2658;SDS011;1339;53.304;10.406;2023-04-26T14:25:54;2.67;;;1.98;;
2658;SDS011;1339;53.304;10.406;2023-04-26T14:28:21;4.00;;;2.30;;
2658;SDS011;1339;53.304;10.406;2023-04-26T14:30:48;3.17;;;1.60;;
2658;SDS011;1339;53.304;10.406;2023-04-26T14:33:15;3.03;;;1.55;;
2658;SDS011;1339;53.304;10.406;2023-04-26T14:35:42;4.82;;;1.77;;
2658;SDS011;1339;53.304;10.406;2023-04-26T14:38:09;7.43;;;1.50;;
2658;SDS011;1339;53.304;10.406;2023-04-26T14:40:38;6.45;;;1.90;;
2658;SDS011;1339;53.304;10.406;2023-04-26T14:43:05;2.22;;;1.10;;
2658;SDS011;1339;53.304;10.406;2023-04-26T14:45:32;2.88;;;1.48;;
2658;SDS011;1339;53.304;10.406;2023-04-26T14:47:59;5.88;;;1.60;;
2658;SDS011;1339;53.304;10.406;2023-04-26T14:50:26;5.78;;;1.95;;
2658;SDS011;1339;53.304;10.406;2023-04-26T14:52:53;2.50;;;1.15;;
2658;SDS011;1339;53.304;10.406;2023-04-26T14:55:20;2.13;;;1.25;;
2658;SDS011;1339;53.304;10.406;2023-04-26T14:57:49;2.88;;;1.83;;
2658;SDS011;1339;53.304;10.406;2023-04-26T15:00:16;3.00;;;1.60;;
2658;SDS011;1339;53.304;10.406;2023-04-26T15:02:43;4.20;;;2.05;;
2658;SDS011;1339;53.304;10.406;2023-04-26T15:05:11;4.82;;;2.13;;
2658;SDS011;1339;53.304;10.406;2023-04-26T15:07:38;2.33;;;1.40;;
2658;SDS011;1339;53.304;10.406;2023-04-26T15:10:05;5.70;;;2.10;;